sensor_id;sensor_type;location;lat;lon;timestamp;pressure;altitude;pressure_sealevel;temperature;humidity
46412;BME280;32113;42.012;24.870;2023-02-23T00:01:27;98960.47;;;11.77;52.02
46412;BME280;32113;42.012;24.870;2023-02-23T00:03:57;98955.16;;;11.86;52.09
46412;BME280;32113;42.012;24.870;2023-02-23T00:06:25;98951.75;;;11.86;51.60
46412;BME280;32113;42.012;24.870;2023-02-23T00:08:52;98964.50;;;11.92;51.12
46412;BME280;32113;42.012;24.870;2023-02-23T00:11:18;98959.34;;;11.93;51.38
46412;BME280;32113;42.012;24.870;2023-02-23T00:13:45;98959.25;;;11.98;51.49
46412;BME280;32113;42.012;24.870;2023-02-23T00:16:23;98957.44;;;12.05;51.59
46412;BME280;32113;42.012;24.870;2023-02-23T00:18:51;98957.53;;;11.99;50.28
46412;BME280;32113;42.012;24.870;2023-02-23T00:21:28;98960.16;;;11.94;50.51
46412;BME280;32113;42.012;24.870;2023-02-23T00:23:55;98961.13;;;11.90;50.06
46412;BME280;32113;42.012;24.870;2023-02-23T00:26:23;98964.59;;;11.87;50.55
46412;BME280;32113;42.012;24.870;2023-02-23T00:28:51;98965.44;;;11.86;49.99
46412;BME280;32113;42.012;24.870;2023-02-23T00:31:18;98961.28;;;11.80;49.70
46412;BME280;32113;42.012;24.870;2023-02-23T00:33:49;98963.03;;;11.77;49.57
46412;BME280;32113;42.012;24.870;2023-02-23T00:36:17;98960.66;;;11.66;50.27
46412;BME280;32113;42.012;24.870;2023-02-23T00:38:43;98964.09;;;11.65;49.74
46412;BME280;32113;42.012;24.870;2023-02-23T00:41:14;98968.44;;;11.61;49.51
46412;BME280;32113;42.012;24.870;2023-02-23T00:43:59;98961.63;;;11.59;49.93
46412;BME280;32113;42.012;24.870;2023-02-23T00:46:27;98966.72;;;11.62;49.76
46412;BME280;32113;42.012;24.870;2023-02-23T00:48:54;98964.16;;;11.62;48.99
46412;BME280;32113;42.012;24.870;2023-02-23T00:51:20;98963.25;;;11.66;49.07
46412;BME280;32113;42.012;24.870;2023-02-23T00:53:46;98964.19;;;11.59;48.58
46412;BME280;32113;42.012;24.870;2023-02-23T00:56:13;98961.66;;;11.57;47.88
46412;BME280;32113;42.012;24.870;2023-02-23T00:58:39;98964.19;;;11.60;48.34
46412;BME280;32113;42.012;24.870;2023-02-23T01:01:10;98964.25;;;11.54;48.80
46412;BME280;32113;42.012;24.870;2023-02-23T01:03:36;98962.56;;;11.51;49.21
46412;BME280;32113;42.012;24.870;2023-02-23T01:06:04;98960.97;;;11.46;47.57
46412;BME280;32113;42.012;24.870;2023-02-23T01:08:32;98961.13;;;11.36;47.76
46412;BME280;32113;42.012;24.870;2023-02-23T01:10:58;98953.28;;;11.44;47.80
46412;BME280;32113;42.012;24.870;2023-02-23T01:13:29;98963.56;;;11.44;47.20
46412;BME280;32113;42.012;24.870;2023-02-23T01:15:54;98958.44;;;11.44;47.38
46412;BME280;32113;42.012;24.870;2023-02-23T01:18:20;98963.59;;;11.41;47.69
46412;BME280;32113;42.012;24.870;2023-02-23T01:20:45;98960.22;;;11.39;47.21
46412;BME280;32113;42.012;24.870;2023-02-23T01:23:13;98962.91;;;11.31;47.54
46412;BME280;32113;42.012;24.870;2023-02-23T01:25:43;98957.69;;;11.34;47.44
46412;BME280;32113;42.012;24.870;2023-02-23T01:28:11;98965.50;;;11.29;46.99
46412;BME280;32113;42.012;24.870;2023-02-23T01:30:38;98963.22;;;11.06;47.63
46412;BME280;32113;42.012;24.870;2023-02-23T01:33:04;98959.00;;;11.02;47.80
46412;BME280;32113;42.012;24.870;2023-02-23T01:35:30;98953.97;;;10.94;48.38
46412;BME280;32113;42.012;24.870;2023-02-23T01:37:55;98965.81;;;11.04;48.31
46412;BME280;32113;42.012;24.870;2023-02-23T01:40:22;98963.13;;;11.14;47.85
46412;BME280;32113;42.012;24.870;2023-02-23T01:45:32;98962.97;;;11.25;47.95
46412;BME280;32113;42.012;24.870;2023-02-23T01:48:06;98960.34;;;11.31;47.81
46412;BME280;32113;42.012;24.870;2023-02-23T01:50:46;98967.97;;;11.34;47.57
46412;BME280;32113;42.012;24.870;2023-02-23T01:53:13;98967.97;;;11.36;47.41
46412;BME280;32113;42.012;24.870;2023-02-23T01:55:40;98972.22;;;11.37;47.11
46412;BME280;32113;42.012;24.870;2023-02-23T01:58:12;98975.81;;;11.26;47.26
46412;BME280;32113;42.012;24.870;2023-02-23T02:00:46;98971.53;;;11.25;47.32
46412;BME280;32113;42.012;24.870;2023-02-23T02:03:18;98971.53;;;11.25;47.62
46412;BME280;32113;42.012;24.870;2023-02-23T02:05:48;98974.09;;;11.25;48.18
46412;BME280;32113;42.012;24.870;2023-02-23T02:08:14;98977.53;;;11.26;48.24
46412;BME280;32113;42.012;24.870;2023-02-23T02:10:40;98968.09;;;11.26;48.59
46412;BME280;32113;42.012;24.870;2023-02-23T02:13:16;98978.34;;;11.28;48.09
46412;BME280;32113;42.012;24.870;2023-02-23T02:15:59;98976.69;;;11.25;48.61
46412;BME280;32113;42.012;24.870;2023-02-23T02:26:38;98985.16;;;11.32;49.02
46412;BME280;32113;42.012;24.870;2023-02-23T02:40:26;98988.78;;;11.15;49.62
46412;BME280;32113;42.012;24.870;2023-02-23T02:43:05;98986.28;;;11.11;49.47
46412;BME280;32113;42.012;24.870;2023-02-23T02:45:54;98978.63;;;11.08;48.35
46412;BME280;32113;42.012;24.870;2023-02-23T02:48:52;98986.47;;;10.97;48.58
46412;BME280;32113;42.012;24.870;2023-02-23T02:51:45;98992.69;;;10.78;48.51
46412;BME280;32113;42.012;24.870;2023-02-23T02:54:38;98994.44;;;10.75;49.02
46412;BME280;32113;42.012;24.870;2023-02-23T02:57:05;98989.22;;;10.81;49.19
46412;BME280;32113;42.012;24.870;2023-02-23T02:59:42;98987.59;;;10.74;49.78
46412;BME280;32113;42.012;24.870;2023-02-23T03:02:26;98987.56;;;10.77;49.64
46412;BME280;32113;42.012;24.870;2023-02-23T03:05:14;98987.66;;;10.69;49.37
46412;BME280;32113;42.012;24.870;2023-02-23T03:10:55;98996.34;;;10.59;48.96
46412;BME280;32113;42.012;24.870;2023-02-23T03:16:43;99004.06;;;10.56;49.61
46412;BME280;32113;42.012;24.870;2023-02-23T03:19:33;99010.88;;;10.58;51.06
46412;BME280;32113;42.012;24.870;2023-02-23T03:28:20;99016.78;;;10.67;51.59
46412;BME280;32113;42.012;24.870;2023-02-23T03:31:38;99013.34;;;10.66;51.36
46412;BME280;32113;42.012;24.870;2023-02-23T03:34:37;99018.47;;;10.69;52.28
46412;BME280;32113;42.012;24.870;2023-02-23T03:37:27;99015.09;;;10.64;50.15
46412;BME280;32113;42.012;24.870;2023-02-23T03:40:20;99021.16;;;10.57;49.53
46412;BME280;32113;42.012;24.870;2023-02-23T03:43:17;99021.31;;;10.44;49.80
46412;BME280;32113;42.012;24.870;2023-02-23T03:46:03;99020.59;;;10.22;50.58
46412;BME280;32113;42.012;24.870;2023-02-23T03:48:52;99024.91;;;10.18;50.40
46412;BME280;32113;42.012;24.870;2023-02-23T03:51:41;99028.34;;;10.17;50.99
46412;BME280;32113;42.012;24.870;2023-02-23T03:54:38;99027.53;;;10.14;51.12
46412;BME280;32113;42.012;24.870;2023-02-23T03:57:26;99025.06;;;10.06;54.41
46412;BME280;32113;42.012;24.870;2023-02-23T04:00:16;99023.47;;;9.89;55.65
46412;BME280;32113;42.012;24.870;2023-02-23T04:03:05;99025.28;;;9.75;56.45
46412;BME280;32113;42.012;24.870;2023-02-23T04:05:52;99025.34;;;9.62;57.32
46412;BME280;32113;42.012;24.870;2023-02-23T04:08:37;99021.97;;;9.55;57.66
46412;BME280;32113;42.012;24.870;2023-02-23T04:11:33;99012.53;;;9.65;57.61
46412;BME280;32113;42.012;24.870;2023-02-23T04:14:27;99014.97;;;9.79;57.84
46412;BME280;32113;42.012;24.870;2023-02-23T04:16:56;99009.84;;;9.82;57.45
46412;BME280;32113;42.012;24.870;2023-02-23T04:19:26;99020.97;;;9.78;57.83
46412;BME280;32113;42.012;24.870;2023-02-23T04:21:52;99013.38;;;9.67;57.97
46412;BME280;32113;42.012;24.870;2023-02-23T04:24:17;99015.22;;;9.46;59.00
46412;BME280;32113;42.012;24.870;2023-02-23T04:26:43;99017.84;;;9.40;58.92
46412;BME280;32113;42.012;24.870;2023-02-23T04:29:10;99018.66;;;9.42;59.00
46412;BME280;32113;42.012;24.870;2023-02-23T04:31:35;99018.72;;;9.36;59.37
46412;BME280;32113;42.012;24.870;2023-02-23T04:34:01;99018.75;;;9.24;60.55
46412;BME280;32113;42.012;24.870;2023-02-23T04:36:26;99026.47;;;9.19;59.29
46412;BME280;32113;42.012;24.870;2023-02-23T04:38:52;99025.66;;;9.09;60.70
46412;BME280;32113;42.012;24.870;2023-02-23T04:41:17;99023.97;;;9.02;54.90
46412;BME280;32113;42.012;24.870;2023-02-23T04:43:44;99029.97;;;9.04;52.42
46412;BME280;32113;42.012;24.870;2023-02-23T04:46:09;99031.66;;;9.06;51.92
46412;BME280;32113;42.012;24.870;2023-02-23T04:48:34;99028.16;;;9.23;52.28
46412;BME280;32113;42.012;24.870;2023-02-23T04:51:00;99031.56;;;9.24;50.83
46412;BME280;32113;42.012;24.870;2023-02-23T04:53:25;99037.59;;;9.09;50.45
46412;BME280;32113;42.012;24.870;2023-02-23T04:55:51;99038.50;;;8.98;50.68
46412;BME280;32113;42.012;24.870;2023-02-23T04:58:16;99034.22;;;9.02;54.67
46412;BME280;32113;42.012;24.870;2023-02-23T05:00:42;99035.94;;;9.00;56.42
46412;BME280;32113;42.012;24.870;2023-02-23T05:03:07;99036.78;;;9.10;58.97
46412;BME280;32113;42.012;24.870;2023-02-23T05:05:33;99036.72;;;9.17;58.18
46412;BME280;32113;42.012;24.870;2023-02-23T05:07:58;99039.28;;;9.17;58.87
46412;BME280;32113;42.012;24.870;2023-02-23T05:10:23;99036.72;;;9.14;59.72
46412;BME280;32113;42.012;24.870;2023-02-23T05:12:49;99043.53;;;9.15;60.27
46412;BME280;32113;42.012;24.870;2023-02-23T05:15:15;99040.09;;;9.26;59.94
46412;BME280;32113;42.012;24.870;2023-02-23T05:17:40;99052.88;;;9.33;59.89
46412;BME280;32113;42.012;24.870;2023-02-23T05:20:08;99053.66;;;9.43;59.81
46412;BME280;32113;42.012;24.870;2023-02-23T05:22:33;99057.88;;;9.52;59.38
46412;BME280;32113;42.012;24.870;2023-02-23T05:24:59;99062.09;;;9.58;58.83
46412;BME280;32113;42.012;24.870;2023-02-23T05:27:25;99068.22;;;9.32;59.48
46412;BME280;32113;42.012;24.870;2023-02-23T05:29:50;99068.22;;;9.30;60.04
46412;BME280;32113;42.012;24.870;2023-02-23T05:32:15;99067.38;;;9.31;59.81
46412;BME280;32113;42.012;24.870;2023-02-23T05:34:41;99076.69;;;9.43;60.11
46412;BME280;32113;42.012;24.870;2023-02-23T05:37:07;99082.72;;;9.31;60.51
46412;BME280;32113;42.012;24.870;2023-02-23T05:39:32;99087.06;;;9.18;60.97
46412;BME280;32113;42.012;24.870;2023-02-23T05:41:57;99085.41;;;9.06;61.42
46412;BME280;32113;42.012;24.870;2023-02-23T05:44:23;99090.50;;;9.13;61.72
46412;BME280;32113;42.012;24.870;2023-02-23T05:46:49;99096.50;;;9.04;61.62
46412;BME280;32113;42.012;24.870;2023-02-23T05:49:14;99098.19;;;9.02;61.88
46412;BME280;32113;42.012;24.870;2023-02-23T05:51:40;99110.97;;;9.13;61.67
46412;BME280;32113;42.012;24.870;2023-02-23T05:54:05;99104.91;;;9.34;60.56
46412;BME280;32113;42.012;24.870;2023-02-23T05:56:31;99109.19;;;9.33;59.98
46412;BME280;32113;42.012;24.870;2023-02-23T05:58:57;99110.91;;;9.36;59.91
46412;BME280;32113;42.012;24.870;2023-02-23T06:01:23;99116.91;;;9.24;60.34
46412;BME280;32113;42.012;24.870;2023-02-23T06:03:49;99118.56;;;9.31;59.58
46412;BME280;32113;42.012;24.870;2023-02-23T06:06:15;99125.38;;;9.36;59.56
46412;BME280;32113;42.012;24.870;2023-02-23T06:08:41;99132.16;;;9.49;59.61
46412;BME280;32113;42.012;24.870;2023-02-23T06:11:07;99129.56;;;9.58;58.86
46412;BME280;32113;42.012;24.870;2023-02-23T06:13:32;99127.00;;;9.55;58.86
46412;BME280;32113;42.012;24.870;2023-02-23T06:15:58;99133.00;;;9.53;58.15
46412;BME280;32113;42.012;24.870;2023-02-23T06:18:27;99138.06;;;9.68;56.22
46412;BME280;32113;42.012;24.870;2023-02-23T06:20:53;99134.66;;;9.63;56.63
46412;BME280;32113;42.012;24.870;2023-02-23T06:23:19;99138.13;;;9.56;56.66
46412;BME280;32113;42.012;24.870;2023-02-23T06:25:45;99138.91;;;9.67;56.89
46412;BME280;32113;42.012;24.870;2023-02-23T06:28:11;99132.94;;;9.67;57.99
46412;BME280;32113;42.012;24.870;2023-02-23T06:30:37;99139.81;;;9.57;59.14
46412;BME280;32113;42.012;24.870;2023-02-23T06:33:04;99138.94;;;9.66;59.32
46412;BME280;32113;42.012;24.870;2023-02-23T06:35:30;99133.72;;;9.78;59.36
46412;BME280;32113;42.012;24.870;2023-02-23T06:37:56;99129.41;;;9.85;59.11
46412;BME280;32113;42.012;24.870;2023-02-23T06:40:22;99131.91;;;9.97;58.83
46412;BME280;32113;42.012;24.870;2023-02-23T06:42:47;99131.00;;;10.05;58.85
46412;BME280;32113;42.012;24.870;2023-02-23T06:45:12;99130.94;;;10.14;58.50
46412;BME280;32113;42.012;24.870;2023-02-23T06:47:39;99126.59;;;10.24;58.48
46412;BME280;32113;42.012;24.870;2023-02-23T06:50:06;99132.53;;;10.26;59.10
46412;BME280;32113;42.012;24.870;2023-02-23T06:52:32;99127.34;;;10.37;59.03
46412;BME280;32113;42.012;24.870;2023-02-23T06:54:57;99124.63;;;10.56;58.49
46412;BME280;32113;42.012;24.870;2023-02-23T06:57:23;99131.38;;;10.66;57.56
46412;BME280;32113;42.012;24.870;2023-02-23T06:59:48;99136.41;;;10.77;57.69
46412;BME280;32113;42.012;24.870;2023-02-23T07:02:17;99138.88;;;10.88;57.79
46412;BME280;32113;42.012;24.870;2023-02-23T07:04:42;99137.09;;;10.96;57.77
46412;BME280;32113;42.012;24.870;2023-02-23T07:07:08;99140.47;;;11.01;57.70
46412;BME280;32113;42.012;24.870;2023-02-23T07:09:34;99141.34;;;10.97;57.67
46412;BME280;32113;42.012;24.870;2023-02-23T07:12:00;99148.19;;;11.00;58.00
46412;BME280;32113;42.012;24.870;2023-02-23T07:14:26;99147.28;;;11.04;58.29
46412;BME280;32113;42.012;24.870;2023-02-23T07:16:51;99144.59;;;11.15;57.89
46412;BME280;32113;42.012;24.870;2023-02-23T07:19:17;99148.78;;;11.24;57.50
46412;BME280;32113;42.012;24.870;2023-02-23T07:21:42;99148.66;;;11.35;57.17
46412;BME280;32113;42.012;24.870;2023-02-23T07:24:08;99150.31;;;11.40;56.84
46412;BME280;32113;42.012;24.870;2023-02-23T07:26:33;99150.31;;;11.39;56.59
46412;BME280;32113;42.012;24.870;2023-02-23T07:29:00;99146.91;;;11.37;56.48
46412;BME280;32113;42.012;24.870;2023-02-23T07:31:26;99148.53;;;11.44;56.98
46412;BME280;32113;42.012;24.870;2023-02-23T07:33:52;99148.53;;;11.46;56.80
46412;BME280;32113;42.012;24.870;2023-02-23T07:36:20;99150.16;;;11.51;58.51
46412;BME280;32113;42.012;24.870;2023-02-23T07:38:45;99149.19;;;11.60;56.64
46412;BME280;32113;42.012;24.870;2023-02-23T07:41:11;99146.53;;;11.68;56.22
46412;BME280;32113;42.012;24.870;2023-02-23T07:43:36;99138.72;;;11.74;55.64
46412;BME280;32113;42.012;24.870;2023-02-23T07:46:01;99141.34;;;11.71;56.16
46412;BME280;32113;42.012;24.870;2023-02-23T07:48:27;99144.72;;;11.75;55.85
46412;BME280;32113;42.012;24.870;2023-02-23T07:50:52;99147.22;;;11.79;56.77
46412;BME280;32113;42.012;24.870;2023-02-23T07:53:18;99144.69;;;11.78;56.71
46412;BME280;32113;42.012;24.870;2023-02-23T07:55:44;99151.44;;;11.85;56.10
46412;BME280;32113;42.012;24.870;2023-02-23T07:58:10;99146.13;;;11.96;56.12
46412;BME280;32113;42.012;24.870;2023-02-23T08:00:37;99146.03;;;12.02;55.92
46412;BME280;32113;42.012;24.870;2023-02-23T08:03:04;99147.69;;;12.09;56.26
46412;BME280;32113;42.012;24.870;2023-02-23T08:05:30;99144.06;;;12.23;55.85
46412;BME280;32113;42.012;24.870;2023-02-23T08:07:57;99145.72;;;12.27;55.63
46412;BME280;32113;42.012;24.870;2023-02-23T08:10:22;99141.34;;;12.32;56.51
46412;BME280;32113;42.012;24.870;2023-02-23T08:12:48;99145.47;;;12.41;56.29
46412;BME280;32113;42.012;24.870;2023-02-23T08:15:13;99140.28;;;12.46;55.63
46412;BME280;32113;42.012;24.870;2023-02-23T08:17:39;99140.19;;;12.49;56.65
46412;BME280;32113;42.012;24.870;2023-02-23T08:20:06;99131.44;;;12.59;56.21
46412;BME280;32113;42.012;24.870;2023-02-23T08:22:32;99134.78;;;12.65;55.46
46412;BME280;32113;42.012;24.870;2023-02-23T08:24:57;99127.94;;;12.64;55.40
46412;BME280;32113;42.012;24.870;2023-02-23T08:27:23;99138.25;;;12.64;55.63
46412;BME280;32113;42.012;24.870;2023-02-23T08:29:48;99137.28;;;12.69;54.71
46412;BME280;32113;42.012;24.870;2023-02-23T08:32:17;99139.88;;;12.68;55.68
46412;BME280;32113;42.012;24.870;2023-02-23T08:34:43;99144.09;;;12.73;55.03
46412;BME280;32113;42.012;24.870;2023-02-23T08:37:09;99139.56;;;12.85;54.74
46412;BME280;32113;42.012;24.870;2023-02-23T08:39:35;99138.81;;;12.80;54.93
46412;BME280;32113;42.012;24.870;2023-02-23T08:42:00;99136.94;;;12.90;55.05
46412;BME280;32113;42.012;24.870;2023-02-23T08:44:26;99133.34;;;12.97;55.22
46412;BME280;32113;42.012;24.870;2023-02-23T08:46:51;99140.00;;;13.09;54.09
46412;BME280;32113;42.012;24.870;2023-02-23T08:49:18;99143.88;;;13.30;53.93
46412;BME280;32113;42.012;24.870;2023-02-23T08:51:43;99137.53;;;13.47;52.62
46412;BME280;32113;42.012;24.870;2023-02-23T08:54:11;99137.25;;;13.62;52.08
46412;BME280;32113;42.012;24.870;2023-02-23T08:56:39;99138.50;;;13.84;51.67
46412;BME280;32113;42.012;24.870;2023-02-23T08:59:04;99138.09;;;14.01;51.32
46412;BME280;32113;42.012;24.870;2023-02-23T09:01:30;99146.31;;;14.18;51.10
46412;BME280;32113;42.012;24.870;2023-02-23T09:03:55;99152.19;;;14.25;51.30
46412;BME280;32113;42.012;24.870;2023-02-23T09:06:22;99146.59;;;14.42;50.65
46412;BME280;32113;42.012;24.870;2023-02-23T09:08:50;99133.19;;;14.63;49.96
46412;BME280;32113;42.012;24.870;2023-02-23T09:11:15;99140.47;;;14.83;49.15
46412;BME280;32113;42.012;24.870;2023-02-23T09:13:40;99134.91;;;14.97;48.92
46412;BME280;32113;42.012;24.870;2023-02-23T09:16:06;99133.25;;;15.26;47.81
46412;BME280;32113;42.012;24.870;2023-02-23T09:18:32;99131.34;;;15.63;47.25
46412;BME280;32113;42.012;24.870;2023-02-23T09:20:58;99129.38;;;16.00;45.88
46412;BME280;32113;42.012;24.870;2023-02-23T09:23:26;99134.78;;;16.21;44.64
46412;BME280;32113;42.012;24.870;2023-02-23T09:25:52;99128.50;;;16.55;43.80
46412;BME280;32113;42.012;24.870;2023-02-23T09:28:18;99127.19;;;16.68;42.86
46412;BME280;32113;42.012;24.870;2023-02-23T09:30:45;99129.19;;;16.86;42.34
46412;BME280;32113;42.012;24.870;2023-02-23T09:33:11;99129.53;;;17.00;41.75
46412;BME280;32113;42.012;24.870;2023-02-23T09:35:38;99124.09;;;17.08;41.43
46412;BME280;32113;42.012;24.870;2023-02-23T09:38:05;99120.16;;;17.22;41.27
46412;BME280;32113;42.012;24.870;2023-02-23T09:40:43;99123.75;;;17.41;41.06
46412;BME280;32113;42.012;24.870;2023-02-23T09:43:24;99125.31;;;17.69;40.34
46412;BME280;32113;42.012;24.870;2023-02-23T09:48:33;99124.44;;;18.15;39.17
46412;BME280;32113;42.012;24.870;2023-02-23T09:51:00;99107.44;;;18.29;38.69
46412;BME280;32113;42.012;24.870;2023-02-23T09:53:34;99114.41;;;18.49;38.24
46412;BME280;32113;42.012;24.870;2023-02-23T09:56:09;99106.19;;;18.37;38.23
46412;BME280;32113;42.012;24.870;2023-02-23T09:58:37;99111.59;;;18.54;38.00
46412;BME280;32113;42.012;24.870;2023-02-23T10:01:22;99112.56;;;18.72;37.52
46412;BME280;32113;42.012;24.870;2023-02-23T10:06:33;99102.16;;;18.93;36.59
46412;BME280;32113;42.012;24.870;2023-02-23T10:11:43;99101.50;;;18.87;36.61
46412;BME280;32113;42.012;24.870;2023-02-23T10:22:05;99087.78;;;19.24;35.38
46412;BME280;32113;42.012;24.870;2023-02-23T10:24:39;99080.50;;;19.13;35.75
46412;BME280;32113;42.012;24.870;2023-02-23T10:27:15;99079.50;;;19.15;36.15
46412;BME280;32113;42.012;24.870;2023-02-23T10:29:52;99081.19;;;19.16;35.93
46412;BME280;32113;42.012;24.870;2023-02-23T10:32:27;99076.72;;;18.99;35.94
46412;BME280;32113;42.012;24.870;2023-02-23T10:34:57;99071.09;;;19.10;35.59
46412;BME280;32113;42.012;24.870;2023-02-23T10:37:24;99068.47;;;19.10;35.44
46412;BME280;32113;42.012;24.870;2023-02-23T10:39:51;99065.59;;;18.96;35.89
46412;BME280;32113;42.012;24.870;2023-02-23T10:42:25;99069.75;;;19.00;36.11
46412;BME280;32113;42.012;24.870;2023-02-23T10:44:53;99060.59;;;19.12;35.82
46412;BME280;32113;42.012;24.870;2023-02-23T10:47:25;99060.69;;;19.10;35.66
46412;BME280;32113;42.012;24.870;2023-02-23T10:49:53;99048.72;;;19.25;35.46
46412;BME280;32113;42.012;24.870;2023-02-23T10:52:40;99057.41;;;19.05;36.01
46412;BME280;32113;42.012;24.870;2023-02-23T10:55:23;99051.50;;;19.01;35.86
46412;BME280;32113;42.012;24.870;2023-02-23T11:00:37;99050.81;;;19.17;35.46
46412;BME280;32113;42.012;24.870;2023-02-23T11:03:18;99048.16;;;19.19;35.69
46412;BME280;32113;42.012;24.870;2023-02-23T11:05:53;99051.38;;;19.24;35.32
46412;BME280;32113;42.012;24.870;2023-02-23T11:08:37;99045.53;;;19.38;34.94
46412;BME280;32113;42.012;24.870;2023-02-23T11:13:44;99035.38;;;19.51;34.60
46412;BME280;32113;42.012;24.870;2023-02-23T11:16:16;99035.00;;;19.41;34.80
46412;BME280;32113;42.012;24.870;2023-02-23T11:18:50;99042.38;;;19.31;34.94
46412;BME280;32113;42.012;24.870;2023-02-23T11:24:24;99038.38;;;19.43;35.03
46412;BME280;32113;42.012;24.870;2023-02-23T11:26:52;99036.25;;;19.51;35.08
46412;BME280;32113;42.012;24.870;2023-02-23T11:29:21;99036.13;;;19.35;34.90
46412;BME280;32113;42.012;24.870;2023-02-23T11:31:56;99032.97;;;19.28;34.99
46412;BME280;32113;42.012;24.870;2023-02-23T11:34:31;99029.50;;;19.28;37.05
46412;BME280;32113;42.012;24.870;2023-02-23T11:37:07;99026.94;;;19.09;37.49
46412;BME280;32113;42.012;24.870;2023-02-23T11:39:58;99024.59;;;18.83;37.94
46412;BME280;32113;42.012;24.870;2023-02-23T11:42:27;99026.44;;;18.60;38.78
46412;BME280;32113;42.012;24.870;2023-02-23T11:45:05;99032.59;;;18.18;39.57
46412;BME280;32113;42.012;24.870;2023-02-23T11:47:33;99028.31;;;18.17;39.62
46412;BME280;32113;42.012;24.870;2023-02-23T11:50:04;99030.63;;;18.23;40.41
46412;BME280;32113;42.012;24.870;2023-02-23T11:52:31;99037.91;;;18.15;40.06
46412;BME280;32113;42.012;24.870;2023-02-23T11:54:59;99036.41;;;18.30;40.22
46412;BME280;32113;42.012;24.870;2023-02-23T11:57:31;99033.22;;;18.23;40.55
46412;BME280;32113;42.012;24.870;2023-02-23T11:59:59;99030.16;;;18.13;40.50
46412;BME280;32113;42.012;24.870;2023-02-23T12:02:30;99034.16;;;18.22;40.70
46412;BME280;32113;42.012;24.870;2023-02-23T12:07:39;99038.44;;;18.01;41.56
46412;BME280;32113;42.012;24.870;2023-02-23T12:13:10;99042.19;;;17.50;41.41
46412;BME280;32113;42.012;24.870;2023-02-23T12:15:57;99044.53;;;17.34;42.17
46412;BME280;32113;42.012;24.870;2023-02-23T12:21:23;99039.84;;;17.20;42.52
46412;BME280;32113;42.012;24.870;2023-02-23T12:26:30;99050.47;;;17.36;43.02
46412;BME280;32113;42.012;24.870;2023-02-23T12:29:26;99049.41;;;17.42;42.19
46412;BME280;32113;42.012;24.870;2023-02-23T12:32:01;99049.09;;;17.27;42.82
46412;BME280;32113;42.012;24.870;2023-02-23T12:34:54;99052.41;;;17.31;42.47
46412;BME280;32113;42.012;24.870;2023-02-23T12:37:41;99060.59;;;17.20;43.02
46412;BME280;32113;42.012;24.870;2023-02-23T12:40:31;99056.59;;;17.11;42.85
46412;BME280;32113;42.012;24.870;2023-02-23T12:43:00;99055.03;;;17.07;43.53
46412;BME280;32113;42.012;24.870;2023-02-23T12:45:49;99064.75;;;17.00;44.25
46412;BME280;32113;42.012;24.870;2023-02-23T12:50:51;99066.31;;;16.80;44.74
46412;BME280;32113;42.012;24.870;2023-02-23T12:56:11;99060.56;;;16.47;46.28
46412;BME280;32113;42.012;24.870;2023-02-23T13:07:08;99069.97;;;16.49;46.93
46412;BME280;32113;42.012;24.870;2023-02-23T13:18:23;99079.59;;;15.92;48.84
46412;BME280;32113;42.012;24.870;2023-02-23T13:23:30;99075.09;;;15.98;48.22
46412;BME280;32113;42.012;24.870;2023-02-23T13:31:24;99077.13;;;15.60;50.21
46412;BME280;32113;42.012;24.870;2023-02-23T13:33:52;99080.88;;;15.49;50.13
46412;BME280;32113;42.012;24.870;2023-02-23T13:36:18;99082.81;;;15.43;50.41
46412;BME280;32113;42.012;24.870;2023-02-23T13:41:35;99089.53;;;15.48;50.64
46412;BME280;32113;42.012;24.870;2023-02-23T13:44:27;99087.84;;;15.47;50.74
46412;BME280;32113;42.012;24.870;2023-02-23T13:46:56;99089.59;;;15.47;50.67
46412;BME280;32113;42.012;24.870;2023-02-23T13:49:50;99089.22;;;15.59;50.54
46412;BME280;32113;42.012;24.870;2023-02-23T13:52:32;99089.09;;;15.62;50.44
46412;BME280;32113;42.012;24.870;2023-02-23T13:55:02;99093.00;;;15.76;50.37
46412;BME280;32113;42.012;24.870;2023-02-23T13:57:31;99095.06;;;15.95;49.73
46412;BME280;32113;42.012;24.870;2023-02-23T13:59:57;99094.28;;;15.91;49.91
46412;BME280;32113;42.012;24.870;2023-02-23T14:05:13;99091.31;;;15.46;51.61
46412;BME280;32113;42.012;24.870;2023-02-23T14:07:43;99104.13;;;15.51;51.61
46412;BME280;32113;42.012;24.870;2023-02-23T14:10:24;99097.84;;;15.58;51.27
46412;BME280;32113;42.012;24.870;2023-02-23T14:15:47;99102.72;;;15.41;51.89
46412;BME280;32113;42.012;24.870;2023-02-23T14:25:52;99102.44;;;14.88;53.70
46412;BME280;32113;42.012;24.870;2023-02-23T14:28:39;99104.50;;;14.74;54.23
46412;BME280;32113;42.012;24.870;2023-02-23T14:47:10;99121.31;;;14.55;55.74
46412;BME280;32113;42.012;24.870;2023-02-23T14:49:47;99116.84;;;14.62;55.42
46412;BME280;32113;42.012;24.870;2023-02-23T14:54:44;99117.44;;;14.39;56.00
46412;BME280;32113;42.012;24.870;2023-02-23T14:59:52;99119.72;;;14.51;55.81
46412;BME280;32113;42.012;24.870;2023-02-23T15:02:23;99117.16;;;14.51;55.82
46412;BME280;32113;42.012;24.870;2023-02-23T15:04:49;99113.81;;;14.46;56.44
46412;BME280;32113;42.012;24.870;2023-02-23T15:09:50;99128.19;;;14.22;56.62
46412;BME280;32113;42.012;24.870;2023-02-23T15:12:37;99136.81;;;14.21;57.05
46412;BME280;32113;42.012;24.870;2023-02-23T15:15:06;99135.84;;;14.25;56.91
46412;BME280;32113;42.012;24.870;2023-02-23T15:17:40;99135.50;;;14.02;57.92
46412;BME280;32113;42.012;24.870;2023-02-23T15:20:13;99136.50;;;13.97;57.87
46412;BME280;32113;42.012;24.870;2023-02-23T15:22:40;99137.34;;;13.97;57.96
46412;BME280;32113;42.012;24.870;2023-02-23T15:25:16;99135.47;;;14.04;58.02
46412;BME280;32113;42.012;24.870;2023-02-23T15:27:43;99141.56;;;14.00;57.27
46412;BME280;32113;42.012;24.870;2023-02-23T15:30:23;99145.94;;;13.98;57.56
46412;BME280;32113;42.012;24.870;2023-02-23T15:33:05;99143.19;;;14.05;57.56